createdAt,value
2019-05-05T00:02:46.041Z,13.11
2019-05-05T00:05:30.432Z,13.15
2019-05-05T00:08:01.761Z,13.07
2019-05-05T00:10:46.041Z,13.01
2019-05-05T00:13:26.881Z,13.07
2019-05-05T00:16:17.080Z,13.02
2019-05-05T00:18:49.061Z,13.00
2019-05-05T00:21:20.091Z,12.96
2019-05-05T00:23:52.307Z,13.08
2019-05-05T00:26:24.368Z,13.08
2019-05-05T00:28:55.680Z,13.04
2019-05-05T00:31:27.122Z,13.13
2019-05-05T00:33:58.477Z,13.05
2019-05-05T00:36:29.737Z,12.88
2019-05-05T00:39:01.246Z,13.02
2019-05-05T00:41:34.606Z,12.97
2019-05-05T00:44:06.546Z,12.96
2019-05-05T00:46:56.715Z,13.05
2019-05-05T00:49:28.876Z,13.04
2019-05-05T00:52:00.260Z,13.14
2019-05-05T00:54:31.872Z,13.04
2019-05-05T00:57:04.434Z,13.03
2019-05-05T00:59:35.589Z,13.19
2019-05-05T01:02:28.299Z,13.09
2019-05-05T01:05:12.147Z,13.17
2019-05-05T01:07:44.381Z,13.20
2019-05-05T01:10:15.632Z,13.09
2019-05-05T01:12:47.023Z,13.10
2019-05-05T01:15:18.231Z,13.14
2019-05-05T01:17:49.520Z,13.01
2019-05-05T01:20:20.967Z,13.02
2019-05-05T01:22:52.229Z,12.91
2019-05-05T01:25:25.377Z,12.81
2019-05-05T01:27:56.844Z,12.82
2019-05-05T01:30:31.220Z,12.81
2019-05-05T01:33:09.514Z,12.84
2019-05-05T01:35:41.172Z,12.81
2019-05-05T01:38:18.636Z,12.82
2019-05-05T01:40:57.798Z,12.90
2019-05-05T01:43:29.355Z,13.00
2019-05-05T01:46:00.806Z,13.01
2019-05-05T01:48:32.317Z,12.95
2019-05-05T01:51:05.009Z,13.06
2019-05-05T01:53:37.686Z,13.13
2019-05-05T01:56:09.109Z,13.22
2019-05-05T01:58:40.637Z,13.01
2019-05-05T02:01:12.181Z,13.15
2019-05-05T02:03:44.306Z,13.15
2019-05-05T02:06:15.834Z,12.97
2019-05-05T02:08:47.202Z,12.84
2019-05-05T02:11:18.749Z,12.64
2019-05-05T02:13:50.095Z,12.45
2019-05-05T02:16:21.597Z,12.41
2019-05-05T02:18:54.438Z,12.38
2019-05-05T02:21:26.872Z,12.39
2019-05-05T02:23:58.801Z,12.27
2019-05-05T02:26:30.515Z,12.23
2019-05-05T02:29:19.682Z,12.18
2019-05-05T02:32:08.795Z,12.07
2019-05-05T02:34:46.132Z,12.01
2019-05-05T02:37:18.151Z,12.01
2019-05-05T02:39:58.923Z,12.01
2019-05-05T02:42:26.389Z,11.96
2019-05-05T02:45:05.077Z,12.00
2019-05-05T02:47:38.290Z,11.89
2019-05-05T02:50:09.906Z,11.89
2019-05-05T02:52:44.190Z,12.05
2019-05-05T02:55:16.163Z,11.92
2019-05-05T02:57:48.221Z,11.92
2019-05-05T03:00:38.895Z,11.99
2019-05-05T03:03:13.399Z,12.03
2019-05-05T03:05:44.874Z,11.98
2019-05-05T03:08:16.776Z,11.98
2019-05-05T03:10:48.930Z,11.91
2019-05-05T03:13:21.863Z,11.91
2019-05-05T03:15:58.301Z,11.89
2019-05-05T03:18:30.381Z,11.90
2019-05-05T03:21:07.147Z,11.85
2019-05-05T03:23:36.749Z,11.79
2019-05-05T03:26:08.550Z,11.81
2019-05-05T03:28:47.294Z,11.84
2019-05-05T03:31:19.348Z,11.90
2019-05-05T03:33:54.700Z,11.91
2019-05-05T03:36:25.889Z,11.87
2019-05-05T03:38:59.420Z,11.87
2019-05-05T03:41:43.858Z,12.05
2019-05-05T03:44:34.297Z,12.05
2019-05-05T03:47:06.323Z,12.10
2019-05-05T03:49:37.826Z,12.15
2019-05-05T03:52:09.590Z,12.26
2019-05-05T03:54:41.251Z,12.33
2019-05-05T03:57:14.107Z,12.44
2019-05-05T03:59:45.634Z,12.46
2019-05-05T04:02:25.994Z,12.43
2019-05-05T04:04:58.577Z,12.47
2019-05-05T04:07:30.291Z,12.58
2019-05-05T04:10:03.733Z,12.67
2019-05-05T04:12:35.639Z,12.61
2019-05-05T04:15:07.354Z,12.67
2019-05-05T04:17:56.302Z,12.75
2019-05-05T04:20:45.785Z,12.80
2019-05-05T04:23:17.205Z,12.73
2019-05-05T04:25:48.536Z,12.72
2019-05-05T04:28:19.940Z,12.66
2019-05-05T04:30:51.303Z,12.54
2019-05-05T04:33:23.660Z,12.60
2019-05-05T04:35:55.121Z,12.63
2019-05-05T04:38:26.395Z,12.60
2019-05-05T04:40:57.847Z,12.56
2019-05-05T04:43:29.173Z,12.61
2019-05-05T04:46:00.453Z,12.65
2019-05-05T04:48:43.912Z,12.62
2019-05-05T04:51:24.376Z,12.63
2019-05-05T04:54:15.869Z,12.80
2019-05-05T04:56:47.234Z,12.82
2019-05-05T04:59:18.345Z,12.80
2019-05-05T05:01:51.566Z,12.90
2019-05-05T05:04:30.830Z,13.07
2019-05-05T05:07:04.471Z,12.96
2019-05-05T05:09:35.369Z,12.84
2019-05-05T05:12:06.721Z,13.09
2019-05-05T05:14:37.930Z,13.10
2019-05-05T05:17:14.165Z,13.22
2019-05-05T05:19:45.626Z,13.21
2019-05-05T05:22:16.652Z,13.19
2019-05-05T05:24:47.936Z,13.09
2019-05-05T05:27:19.385Z,13.04
2019-05-05T05:29:50.783Z,13.11
2019-05-05T05:32:24.533Z,13.24
2019-05-05T05:34:56.364Z,13.11
2019-05-05T05:37:27.639Z,13.10
2019-05-05T05:40:08.510Z,13.08
2019-05-05T05:42:39.939Z,13.19
2019-05-05T05:45:48.623Z,13.12
2019-05-05T05:48:38.924Z,13.07
2019-05-05T05:51:14.500Z,13.06
2019-05-05T05:53:46.818Z,13.05
2019-05-05T05:56:17.904Z,13.13
2019-05-05T05:58:49.000Z,13.07
2019-05-05T06:01:20.754Z,12.98
2019-05-05T06:03:53.635Z,12.96
2019-05-05T06:06:25.411Z,12.91
2019-05-05T06:08:58.525Z,12.90
2019-05-05T06:11:30.397Z,13.05
2019-05-05T06:14:03.979Z,13.09
2019-05-05T06:16:37.258Z,13.23
2019-05-05T06:19:10.296Z,13.32
2019-05-05T06:21:43.852Z,13.41
2019-05-05T06:24:14.361Z,13.62
2019-05-05T06:26:45.558Z,14.19
2019-05-05T06:29:16.787Z,14.79
2019-05-05T06:31:47.884Z,15.18
2019-05-05T06:34:18.916Z,15.14
2019-05-05T06:36:50.019Z,15.06
2019-05-05T06:39:21.194Z,14.86
2019-05-05T06:42:01.310Z,14.60
2019-05-05T06:44:55.460Z,14.56
2019-05-05T06:47:29.533Z,14.45
2019-05-05T06:50:00.998Z,14.39
2019-05-05T06:52:43.700Z,14.31
2019-05-05T06:55:06.169Z,14.33
2019-05-05T06:57:37.694Z,14.23
2019-05-05T07:00:09.466Z,14.14
2019-05-05T07:02:41.087Z,14.21
2019-05-05T07:05:14.282Z,14.22
2019-05-05T07:07:45.297Z,14.20
2019-05-05T07:10:16.885Z,14.15
2019-05-05T07:12:48.118Z,14.40
2019-05-05T07:15:19.619Z,14.65
2019-05-05T07:17:50.827Z,14.89
2019-05-05T07:20:24.027Z,14.89
2019-05-05T07:23:01.418Z,15.07
2019-05-05T07:25:39.884Z,15.38
2019-05-05T07:28:00.817Z,15.77
2019-05-05T07:30:33.572Z,15.87
2019-05-05T07:33:05.126Z,15.87
2019-05-05T07:35:55.368Z,16.05
2019-05-05T07:38:17.855Z,16.26
2019-05-05T07:40:48.909Z,16.26
2019-05-05T07:43:20.333Z,16.95
2019-05-05T07:45:53.885Z,17.32
2019-05-05T07:48:24.618Z,17.29
2019-05-05T07:51:01.936Z,17.18
2019-05-05T07:53:28.324Z,17.06
2019-05-05T07:55:59.633Z,17.03
2019-05-05T07:58:30.901Z,17.05
2019-05-05T08:01:02.056Z,16.78
2019-05-05T08:03:33.856Z,16.78
2019-05-05T08:06:05.427Z,16.60
2019-05-05T08:08:37.356Z,16.65
2019-05-05T08:11:08.523Z,16.65
2019-05-05T08:13:39.718Z,16.89
2019-05-05T08:16:29.899Z,17.12
2019-05-05T08:19:13.762Z,17.24
2019-05-05T08:21:45.157Z,17.55
2019-05-05T08:24:33.735Z,17.67
2019-05-05T08:27:34.000Z,17.34
2019-05-05T08:30:15.314Z,17.37
2019-05-05T08:32:46.949Z,17.67
2019-05-05T08:35:18.394Z,17.61
2019-05-05T08:37:50.848Z,17.60
2019-05-05T08:40:24.014Z,17.77
2019-05-05T08:42:55.192Z,17.12
2019-05-05T08:45:26.825Z,17.21
2019-05-05T08:47:58.448Z,17.21
2019-05-05T08:50:29.903Z,17.21
2019-05-05T08:53:01.222Z,17.23
2019-05-05T08:55:34.590Z,17.99
2019-05-05T08:58:06.203Z,17.99
2019-05-05T09:00:37.573Z,18.03
2019-05-05T09:03:09.142Z,18.54
2019-05-05T09:05:40.277Z,18.44
2019-05-05T09:08:13.783Z,18.75
2019-05-05T09:10:44.893Z,18.89
2019-05-05T09:13:16.276Z,19.55
2019-05-05T09:15:47.572Z,20.63
2019-05-05T09:18:18.593Z,20.64
2019-05-05T09:20:49.684Z,20.99
2019-05-05T09:23:20.662Z,21.26
2019-05-05T09:26:04.437Z,21.61
2019-05-05T09:28:40.083Z,21.61
2019-05-05T09:31:10.996Z,21.35
2019-05-05T09:33:44.188Z,21.35
2019-05-05T09:36:15.149Z,21.33
2019-05-05T09:38:46.326Z,21.41
2019-05-05T09:41:17.538Z,21.40
2019-05-05T09:43:48.653Z,21.54
2019-05-05T09:46:19.718Z,21.82
2019-05-05T09:48:51.272Z,21.28
2019-05-05T09:51:24.152Z,21.00
2019-05-05T09:53:55.655Z,20.42
2019-05-05T09:56:26.995Z,20.05
2019-05-05T09:58:58.206Z,19.69
2019-05-05T10:01:29.390Z,19.56
2019-05-05T10:04:10.602Z,19.68
2019-05-05T10:06:45.514Z,19.79
2019-05-05T10:09:15.178Z,19.82
2019-05-05T10:11:46.430Z,19.74
2019-05-05T10:14:17.724Z,20.06
2019-05-05T10:16:49.324Z,20.00
2019-05-05T10:19:20.644Z,19.45
2019-05-05T10:21:51.963Z,19.40
2019-05-05T10:24:31.031Z,19.41
2019-05-05T10:27:00.386Z,19.27
2019-05-05T10:29:31.776Z,19.12
2019-05-05T10:32:04.554Z,19.24
2019-05-05T10:34:35.895Z,19.16
2019-05-05T10:37:07.223Z,19.29
2019-05-05T10:39:44.017Z,19.16
2019-05-05T10:42:15.357Z,18.89
2019-05-05T10:44:47.611Z,19.07
2019-05-05T10:47:18.829Z,19.40
2019-05-05T10:49:50.059Z,19.78
2019-05-05T10:52:21.166Z,19.47
2019-05-05T10:54:54.695Z,19.27
2019-05-05T10:57:25.132Z,19.24
2019-05-05T11:00:09.371Z,19.17
2019-05-05T11:02:29.617Z,19.16
2019-05-05T11:05:00.842Z,19.04
2019-05-05T11:07:34.096Z,18.75
2019-05-05T11:10:05.982Z,18.97
2019-05-05T11:12:37.121Z,19.17
2019-05-05T11:15:10.136Z,19.29
2019-05-05T11:17:41.355Z,19.22
2019-05-05T11:20:14.425Z,19.48
2019-05-05T11:22:45.609Z,19.31
2019-05-05T11:25:17.050Z,19.47
2019-05-05T11:27:48.222Z,19.75
2019-05-05T11:30:26.916Z,20.02
2019-05-05T11:33:34.279Z,20.37
2019-05-05T11:36:16.466Z,20.49
2019-05-05T11:38:47.721Z,21.04
2019-05-05T11:41:19.073Z,21.58
2019-05-05T11:43:50.153Z,21.58
2019-05-05T11:46:21.387Z,20.79
2019-05-05T11:48:54.421Z,21.08
2019-05-05T11:51:26.134Z,21.00
2019-05-05T11:53:57.414Z,21.18
2019-05-05T11:56:28.900Z,21.48
2019-05-05T11:59:00.112Z,21.10
2019-05-05T12:01:31.322Z,21.29
2019-05-05T12:04:04.373Z,21.42
2019-05-05T12:06:36.017Z,21.35
2019-05-05T12:09:13.954Z,21.61
2019-05-05T12:11:45.186Z,21.81
2019-05-05T12:14:18.945Z,21.88
2019-05-05T12:16:49.958Z,21.53
2019-05-05T12:19:21.346Z,21.42
2019-05-05T12:21:54.574Z,21.28
2019-05-05T12:24:29.713Z,21.35
2019-05-05T12:27:24.615Z,21.33
2019-05-05T12:29:59.994Z,21.30
2019-05-05T12:32:31.432Z,21.15
2019-05-05T12:35:04.233Z,20.99
2019-05-05T12:37:35.480Z,20.92
2019-05-05T12:40:08.176Z,21.00
2019-05-05T12:42:39.527Z,21.00
2019-05-05T12:45:14.086Z,21.03
2019-05-05T12:48:10.068Z,20.91
2019-05-05T12:50:41.182Z,20.80
2019-05-05T12:53:14.406Z,20.70
2019-05-05T12:55:45.407Z,20.79
2019-05-05T12:58:16.930Z,20.83
2019-05-05T13:00:57.392Z,20.97
2019-05-05T13:03:28.472Z,20.89
2019-05-05T13:05:59.969Z,21.15
2019-05-05T13:08:33.891Z,21.15
2019-05-05T13:11:04.883Z,21.07
2019-05-05T13:13:36.359Z,20.99
2019-05-05T13:16:07.477Z,21.18
2019-05-05T13:18:38.921Z,21.26
2019-05-05T13:21:41.179Z,21.14
2019-05-05T13:24:40.461Z,21.30
2019-05-05T13:27:11.525Z,21.33
2019-05-05T13:29:44.278Z,21.51
2019-05-05T13:32:15.597Z,21.65
2019-05-05T13:34:46.570Z,21.65
2019-05-05T13:37:18.013Z,21.47
2019-05-05T13:39:49.237Z,21.79
2019-05-05T13:42:20.405Z,21.82
2019-05-05T13:45:03.975Z,21.85
2019-05-05T13:47:35.326Z,21.67
2019-05-05T13:50:14.188Z,21.50
2019-05-05T13:52:45.776Z,21.54
2019-05-05T13:55:17.270Z,21.42
2019-05-05T13:57:48.885Z,21.51
2019-05-05T14:00:20.681Z,21.45
2019-05-05T14:02:51.841Z,21.33
2019-05-05T14:05:24.036Z,21.03
2019-05-05T14:07:55.523Z,20.81
2019-05-05T14:10:26.904Z,20.67
2019-05-05T14:12:58.983Z,20.68
2019-05-05T14:15:30.256Z,20.48
2019-05-05T14:18:03.674Z,20.45
2019-05-05T14:20:34.795Z,20.50
2019-05-05T14:23:05.916Z,20.48
2019-05-05T14:25:37.453Z,20.48
2019-05-05T14:28:08.748Z,20.51
2019-05-05T14:30:54.562Z,20.52
2019-05-05T14:33:28.550Z,20.46
2019-05-05T14:36:25.863Z,20.45
2019-05-05T14:38:58.288Z,20.45
2019-05-05T14:41:29.604Z,20.36
2019-05-05T14:44:00.736Z,20.34
2019-05-05T14:46:33.923Z,20.39
2019-05-05T14:49:05.816Z,20.35
2019-05-05T14:51:37.283Z,20.37
2019-05-05T14:54:10.804Z,20.35
2019-05-05T14:56:43.891Z,20.47
2019-05-05T14:59:14.583Z,20.12
2019-05-05T15:01:46.074Z,20.19
2019-05-05T15:04:19.045Z,20.20
2019-05-05T15:07:00.352Z,19.98
2019-05-05T15:09:54.655Z,20.00
2019-05-05T15:12:38.859Z,19.77
2019-05-05T15:15:10.191Z,19.51
2019-05-05T15:17:41.217Z,19.46
2019-05-05T15:20:13.985Z,19.43
2019-05-05T15:22:45.196Z,19.35
2019-05-05T15:25:16.558Z,19.29
2019-05-05T15:27:48.143Z,19.13
2019-05-05T15:30:19.375Z,19.07
2019-05-05T15:32:50.561Z,19.08
2019-05-05T15:35:21.936Z,19.09
2019-05-05T15:37:54.155Z,19.20
2019-05-05T15:40:25.533Z,19.07
2019-05-05T15:42:56.663Z,18.88
2019-05-05T15:45:28.052Z,18.86
2019-05-05T15:47:59.478Z,18.87
2019-05-05T15:50:30.798Z,18.80
2019-05-05T15:53:03.805Z,18.81
2019-05-05T15:55:35.259Z,18.87
2019-05-05T15:58:06.604Z,18.84
2019-05-05T16:00:37.769Z,18.87
2019-05-05T16:03:09.286Z,18.87
2019-05-05T16:05:40.540Z,18.89
2019-05-05T16:08:11.629Z,18.88
2019-05-05T16:10:44.020Z,18.76
2019-05-05T16:13:15.645Z,18.78
2019-05-05T16:16:05.779Z,18.78
2019-05-05T16:19:05.250Z,18.87
2019-05-05T16:21:40.693Z,19.03
2019-05-05T16:24:20.602Z,19.12
2019-05-05T16:26:55.231Z,19.07
2019-05-05T16:29:24.408Z,19.03
2019-05-05T16:31:55.791Z,18.99
2019-05-05T16:34:26.952Z,18.90
2019-05-05T16:36:58.023Z,18.79
2019-05-05T16:39:29.190Z,18.75
2019-05-05T16:42:00.445Z,18.58
2019-05-05T16:44:33.992Z,18.45
2019-05-05T16:47:04.871Z,18.27
2019-05-05T16:49:36.157Z,18.17
2019-05-05T16:52:14.584Z,17.96
2019-05-05T16:55:05.630Z,17.44
2019-05-05T16:57:37.125Z,16.98
2019-05-05T17:00:08.750Z,16.33
2019-05-05T17:02:39.893Z,16.01
2019-05-05T17:05:13.629Z,15.68
2019-05-05T17:07:44.564Z,15.68
2019-05-05T17:10:15.950Z,15.46
2019-05-05T17:12:47.536Z,15.46
2019-05-05T17:15:46.685Z,15.27
2019-05-05T17:18:41.876Z,15.27
2019-05-05T17:21:21.873Z,15.14
2019-05-05T17:23:53.954Z,15.02
2019-05-05T17:26:25.308Z,14.91
2019-05-05T17:28:56.647Z,14.87
2019-05-05T17:31:27.804Z,14.79
2019-05-05T17:33:59.244Z,14.84
2019-05-05T17:36:30.531Z,14.79
2019-05-05T17:39:01.666Z,14.73
2019-05-05T17:41:53.876Z,14.76
2019-05-05T17:44:44.281Z,14.75
2019-05-05T17:47:25.250Z,14.80
2019-05-05T17:50:08.783Z,14.80
2019-05-05T17:52:47.085Z,14.81
2019-05-05T17:55:29.087Z,14.79
2019-05-05T17:58:02.666Z,14.84
2019-05-05T18:00:36.611Z,14.89
2019-05-05T18:03:08.128Z,14.85
2019-05-05T18:05:56.957Z,14.96
2019-05-05T18:08:53.775Z,15.05
2019-05-05T18:11:30.255Z,15.18
2019-05-05T18:14:05.529Z,15.22
2019-05-05T18:16:36.552Z,15.27
2019-05-05T18:19:07.798Z,15.45
2019-05-05T18:21:39.170Z,15.52
2019-05-05T18:24:10.131Z,15.62
2019-05-05T18:26:43.435Z,15.64
2019-05-05T18:29:14.560Z,15.66
2019-05-05T18:31:45.936Z,15.94
2019-05-05T18:34:17.099Z,15.94
2019-05-05T18:36:48.206Z,16.05
2019-05-05T18:39:19.620Z,16.29
2019-05-05T18:42:09.734Z,16.29
2019-05-05T18:44:44.481Z,16.37
2019-05-05T18:47:19.403Z,16.37
2019-05-05T18:49:53.962Z,16.45
2019-05-05T18:52:25.319Z,16.39
2019-05-05T18:54:56.307Z,16.38
2019-05-05T18:57:27.354Z,16.23
2019-05-05T18:59:58.476Z,16.12
2019-05-05T19:02:44.270Z,16.15
2019-05-05T19:05:23.714Z,16.20
2019-05-05T19:08:01.454Z,16.30
2019-05-05T19:10:33.719Z,16.44
2019-05-05T19:13:05.194Z,16.42
2019-05-05T19:15:36.744Z,16.41
2019-05-05T19:18:08.147Z,16.41
2019-05-05T19:20:54.240Z,16.50
2019-05-05T19:23:25.345Z,16.27
2019-05-05T19:25:56.480Z,16.41
2019-05-05T19:28:40.974Z,16.41
2019-05-05T19:31:00.430Z,16.52
2019-05-05T19:33:33.922Z,16.49
2019-05-05T19:36:05.030Z,16.53
2019-05-05T19:38:36.131Z,16.55
2019-05-05T19:41:07.079Z,16.55
2019-05-05T19:43:54.858Z,16.55
2019-05-05T19:46:37.845Z,16.36
2019-05-05T19:49:18.417Z,16.47
2019-05-05T19:51:50.135Z,16.33
2019-05-05T19:54:21.951Z,16.33
2019-05-05T19:56:54.246Z,16.29
2019-05-05T19:59:25.391Z,16.18
2019-05-05T20:01:56.542Z,16.24
2019-05-05T20:04:27.864Z,16.27
2019-05-05T20:06:59.237Z,16.27
2019-05-05T20:09:30.653Z,16.38
2019-05-05T20:12:03.870Z,16.36
2019-05-05T20:14:36.324Z,16.21
2019-05-05T20:17:16.570Z,16.30
2019-05-05T20:19:47.673Z,16.40
2019-05-05T20:22:18.823Z,16.40
2019-05-05T20:24:49.758Z,16.38
2019-05-05T20:27:21.141Z,16.38
2019-05-05T20:29:52.321Z,16.33
2019-05-05T20:32:34.141Z,16.40
2019-05-05T20:35:17.942Z,16.49
2019-05-05T20:38:14.352Z,16.59
2019-05-05T20:40:47.120Z,16.47
2019-05-05T20:43:18.327Z,16.25
2019-05-05T20:45:49.376Z,16.25
2019-05-05T20:48:20.314Z,16.23
2019-05-05T20:50:51.331Z,16.06
2019-05-05T20:53:24.547Z,16.08
2019-05-05T20:55:55.016Z,16.08
2019-05-05T20:58:26.251Z,16.05
2019-05-05T21:00:57.480Z,16.01
2019-05-05T21:03:28.764Z,16.06
2019-05-05T21:05:59.825Z,15.97
2019-05-05T21:08:30.893Z,15.97
2019-05-05T21:11:04.176Z,16.05
2019-05-05T21:13:35.214Z,16.00
2019-05-05T21:16:06.227Z,16.00
2019-05-05T21:18:37.197Z,15.88
2019-05-05T21:21:13.740Z,15.84
2019-05-05T21:23:49.628Z,15.92
2019-05-05T21:26:25.031Z,16.07
2019-05-05T21:28:56.088Z,16.07
2019-05-05T21:31:27.324Z,16.08
2019-05-05T21:33:58.377Z,15.95
2019-05-05T21:36:29.757Z,15.95
2019-05-05T21:39:01.215Z,15.89
2019-05-05T21:41:34.054Z,15.81
2019-05-05T21:44:05.623Z,15.81
2019-05-05T21:46:36.910Z,15.75
2019-05-05T21:49:08.160Z,15.75
2019-05-05T21:52:07.359Z,15.75
2019-05-05T21:55:04.709Z,15.62
2019-05-05T21:58:01.034Z,15.66
2019-05-05T22:00:49.630Z,15.66
2019-05-05T22:03:27.772Z,15.60
2019-05-05T22:05:58.930Z,15.44
2019-05-05T22:08:29.986Z,15.45
2019-05-05T22:11:03.770Z,15.40
2019-05-05T22:13:36.603Z,15.45
2019-05-05T22:16:08.380Z,15.39
2019-05-05T22:18:40.110Z,15.49
2019-05-05T22:21:45.173Z,15.50
2019-05-05T22:24:17.444Z,15.50
2019-05-05T22:26:48.830Z,15.54
2019-05-05T22:29:20.343Z,15.69
2019-05-05T22:31:51.709Z,15.69
2019-05-05T22:34:24.118Z,15.69
2019-05-05T22:36:55.602Z,15.69
2019-05-05T22:39:27.034Z,15.73
2019-05-05T22:41:58.405Z,15.67
2019-05-05T22:44:29.519Z,15.67
2019-05-05T22:47:00.764Z,15.63
2019-05-05T22:49:31.888Z,15.74
2019-05-05T22:52:03.845Z,15.74
2019-05-05T22:54:35.088Z,15.66
2019-05-05T22:57:06.331Z,15.66
2019-05-05T22:59:37.391Z,15.66
2019-05-05T23:02:08.919Z,15.71
2019-05-05T23:04:57.891Z,15.85
2019-05-05T23:07:31.103Z,15.80
2019-05-05T23:10:04.462Z,15.80
2019-05-05T23:12:35.210Z,15.70
2019-05-05T23:15:09.447Z,15.76
2019-05-05T23:17:56.384Z,15.86
2019-05-05T23:21:02.521Z,15.86
2019-05-05T23:23:50.366Z,16.01
2019-05-05T23:26:22.306Z,15.86
2019-05-05T23:28:53.820Z,15.86
2019-05-05T23:31:24.938Z,15.93
2019-05-05T23:33:56.093Z,15.98
2019-05-05T23:36:27.537Z,15.88
2019-05-05T23:38:58.902Z,15.88
2019-05-05T23:41:31.205Z,15.88
2019-05-05T23:44:03.664Z,15.90
2019-05-05T23:46:34.999Z,15.85
2019-05-05T23:49:06.469Z,15.85
2019-05-05T23:51:38.858Z,15.86
2019-05-05T23:54:10.362Z,15.99
2019-05-05T23:56:41.619Z,16.16
2019-05-05T23:59:13.705Z,16.16
